METAR Data
IDs: Format: Raw Decoded Include TAF

Data at: 2107 UTC 08 Aug 2020

PHNL 082053Z 07018KT 10SM -RA FEW025 SCT032 BKN050 29/22 A3006 RMK AO2 RAB47 SLP179 P0000 60000 T02890217 50001
PHNL 081953Z 05013KT 10SM FEW025 SCT032 BKN055 28/22 A3007 RMK AO2 SLP181 VCSH NE T02830217

PHNL 081730Z 0818/0924 06011KT P6SM SCT030 BKN040
  FM082000 06017G24KT P6SM FEW025 SCT050
  FM090500 06013KT P6SM SCT030 SCT050
  FM091000 06010KT P6SM SCT030 SCT045


PHOG 082054Z 04026G31KT 10SM FEW015 SCT050 32/22 A3004 RMK AO2 PK WND 05031/2004 SLP176 T03220217 58001
PHOG 081954Z 06016G29KT 10SM FEW035 SCT055 31/20 A3004 RMK AO2 PK WND 04030/1944 SLP178 T03110200

PHOG 081730Z 0818/0918 05013KT P6SM VCSH SCT025 BKN050
  FM082000 05019G27KT P6SM SCT025 SCT050
  FM090500 05015KT P6SM VCSH SCT025 BKN050
  FM091000 05010KT P6SM VCSH SCT025 BKN040 AMD LTD TO VIS AND WIND 0909/0916


PHKO 082053Z 18010KT 10SM SCT042 BKN060 28/23 A3001 RMK AO2 SLP161 T02830228 51000
PHKO 081953Z 20007KT 10SM SCT040 BKN055 28/22 A3001 RMK AO2 SLP161 T02830217

PHKO 081730Z 0818/0918 12005KT P6SM BKN035 BKN045
  FM082000 22010KT P6SM BKN050
  FM090500 12005KT P6SM SCT050


PHTO 082053Z 00000KT 10SM FEW029 OVC038 27/22 A3010 RMK AO2 RAB38E48 SLP190 P0000 60000 T02720217 50003
PHTO 081953Z 11005KT 10SM OVC036 28/21 A3011 RMK AO2 SLP194 T02780206

PHTO 081730Z 0818/0918 24005KT P6SM VCSH SCT025 BKN035
  FM082000 08008KT P6SM VCSH SCT025 BKN035
  FM090500 VRB05KT P6SM VCSH SCT020 BKN030


PHLI 082053Z 04011KT 10SM SCT016 BKN021 OVC028 27/24 A3012 RMK AO2 SLP196 T02720239 51007
PHLI 082027Z 05014G22KT 5SM HZ FEW014 BKN021 BKN027 27/24 A3012 RMK AO2 T02670239
PHLI 081953Z 07015KT 10SM FEW016 SCT028 28/23 A3011 RMK AO2 SLP194 T02830233

PHLI 081730Z 0818/0918 06014KT P6SM VCSH SCT020 BKN035
  FM090600 06014KT P6SM VCSH BKN025 BKN035